sensor_id;sensor_type;location;lat;lon;timestamp;P1;durP1;ratioP1;P2;durP2;ratioP2
31182;SDS011;17813;0.000;0.000;2024-03-08T00:00:09;26.23;;;20.70;;
31182;SDS011;17813;0.000;0.000;2024-03-08T00:02:41;23.70;;;19.63;;
31182;SDS011;17813;0.000;0.000;2024-03-08T00:05:08;24.80;;;20.67;;
31182;SDS011;17813;0.000;0.000;2024-03-08T00:07:35;22.67;;;19.33;;
31182;SDS011;17813;0.000;0.000;2024-03-08T00:10:04;24.03;;;19.30;;
31182;SDS011;17813;0.000;0.000;2024-03-08T00:12:33;28.20;;;21.03;;
31182;SDS011;17813;0.000;0.000;2024-03-08T00:15:01;29.37;;;22.07;;
31182;SDS011;17813;0.000;0.000;2024-03-08T00:17:28;24.30;;;20.07;;
31182;SDS011;17813;0.000;0.000;2024-03-08T00:19:55;24.40;;;19.80;;
31182;SDS011;17813;0.000;0.000;2024-03-08T00:22:25;23.30;;;19.50;;
31182;SDS011;17813;0.000;0.000;2024-03-08T00:24:53;25.40;;;19.30;;
31182;SDS011;17813;0.000;0.000;2024-03-08T00:27:20;23.87;;;20.43;;
31182;SDS011;17813;0.000;0.000;2024-03-08T00:29:47;25.00;;;19.93;;
31182;SDS011;17813;0.000;0.000;2024-03-08T00:32:15;25.63;;;20.17;;
31182;SDS011;17813;0.000;0.000;2024-03-08T00:34:44;26.73;;;20.57;;
31182;SDS011;17813;0.000;0.000;2024-03-08T00:37:12;27.90;;;21.30;;
31182;SDS011;17813;0.000;0.000;2024-03-08T00:39:39;26.27;;;20.20;;
31182;SDS011;17813;0.000;0.000;2024-03-08T00:42:09;25.80;;;20.90;;
31182;SDS011;17813;0.000;0.000;2024-03-08T00:44:36;30.57;;;22.17;;
31182;SDS011;17813;0.000;0.000;2024-03-08T00:47:05;24.17;;;19.63;;
31182;SDS011;17813;0.000;0.000;2024-03-08T00:49:32;26.37;;;19.90;;
31182;SDS011;17813;0.000;0.000;2024-03-08T00:52:01;25.90;;;19.93;;
31182;SDS011;17813;0.000;0.000;2024-03-08T00:54:28;24.37;;;19.67;;
31182;SDS011;17813;0.000;0.000;2024-03-08T00:56:56;25.03;;;20.57;;
31182;SDS011;17813;0.000;0.000;2024-03-08T00:59:32;25.47;;;19.97;;
31182;SDS011;17813;0.000;0.000;2024-03-08T01:01:59;27.70;;;19.60;;
31182;SDS011;17813;0.000;0.000;2024-03-08T01:04:27;23.80;;;19.07;;
31182;SDS011;17813;0.000;0.000;2024-03-08T01:06:57;26.30;;;19.97;;
31182;SDS011;17813;0.000;0.000;2024-03-08T01:09:26;25.00;;;19.53;;
31182;SDS011;17813;0.000;0.000;2024-03-08T01:11:57;24.80;;;19.70;;
31182;SDS011;17813;0.000;0.000;2024-03-08T01:14:24;27.00;;;19.70;;
31182;SDS011;17813;0.000;0.000;2024-03-08T01:16:51;24.27;;;19.87;;
31182;SDS011;17813;0.000;0.000;2024-03-08T01:19:19;24.90;;;20.43;;
31182;SDS011;17813;0.000;0.000;2024-03-08T01:21:47;24.50;;;19.13;;
31182;SDS011;17813;0.000;0.000;2024-03-08T01:24:14;26.23;;;21.20;;
31182;SDS011;17813;0.000;0.000;2024-03-08T01:26:42;27.13;;;21.10;;
31182;SDS011;17813;0.000;0.000;2024-03-08T01:29:12;25.33;;;20.97;;
31182;SDS011;17813;0.000;0.000;2024-03-08T01:31:39;25.77;;;20.70;;
31182;SDS011;17813;0.000;0.000;2024-03-08T01:34:07;25.40;;;20.70;;
31182;SDS011;17813;0.000;0.000;2024-03-08T01:36:35;25.80;;;20.70;;
31182;SDS011;17813;0.000;0.000;2024-03-08T01:39:04;28.40;;;21.53;;
31182;SDS011;17813;0.000;0.000;2024-03-08T01:41:34;28.50;;;21.77;;
31182;SDS011;17813;0.000;0.000;2024-03-08T01:44:02;25.90;;;21.00;;
31182;SDS011;17813;0.000;0.000;2024-03-08T01:46:33;26.00;;;21.10;;
31182;SDS011;17813;0.000;0.000;2024-03-08T01:49:02;29.27;;;21.90;;
31182;SDS011;17813;0.000;0.000;2024-03-08T01:51:31;26.53;;;22.10;;
31182;SDS011;17813;0.000;0.000;2024-03-08T01:54:01;26.93;;;20.83;;
31182;SDS011;17813;0.000;0.000;2024-03-08T01:56:29;27.07;;;21.53;;
31182;SDS011;17813;0.000;0.000;2024-03-08T01:58:58;27.10;;;21.57;;
31182;SDS011;17813;0.000;0.000;2024-03-08T02:01:26;28.87;;;22.13;;
31182;SDS011;17813;0.000;0.000;2024-03-08T02:03:56;30.37;;;21.60;;
31182;SDS011;17813;0.000;0.000;2024-03-08T02:06:23;26.83;;;21.00;;
31182;SDS011;17813;0.000;0.000;2024-03-08T02:08:52;29.10;;;21.20;;
31182;SDS011;17813;0.000;0.000;2024-03-08T02:11:20;27.57;;;20.87;;
31182;SDS011;17813;0.000;0.000;2024-03-08T02:13:47;27.43;;;21.27;;
31182;SDS011;17813;0.000;0.000;2024-03-08T02:16:24;28.23;;;20.87;;
31182;SDS011;17813;0.000;0.000;2024-03-08T02:18:52;28.57;;;22.73;;
31182;SDS011;17813;0.000;0.000;2024-03-08T02:21:19;28.17;;;21.73;;
31182;SDS011;17813;0.000;0.000;2024-03-08T02:23:46;29.33;;;22.00;;
31182;SDS011;17813;0.000;0.000;2024-03-08T02:26:14;31.07;;;22.63;;
31182;SDS011;17813;0.000;0.000;2024-03-08T02:28:41;29.07;;;22.07;;
31182;SDS011;17813;0.000;0.000;2024-03-08T02:31:09;30.53;;;23.00;;
31182;SDS011;17813;0.000;0.000;2024-03-08T02:33:37;28.87;;;22.63;;
31182;SDS011;17813;0.000;0.000;2024-03-08T02:36:06;28.33;;;22.33;;
31182;SDS011;17813;0.000;0.000;2024-03-08T02:38:33;30.83;;;22.40;;
31182;SDS011;17813;0.000;0.000;2024-03-08T02:41:01;30.43;;;23.70;;
31182;SDS011;17813;0.000;0.000;2024-03-08T02:43:30;30.33;;;23.23;;
31182;SDS011;17813;0.000;0.000;2024-03-08T02:45:58;30.80;;;23.23;;
31182;SDS011;17813;0.000;0.000;2024-03-08T02:48:27;31.27;;;22.30;;
31182;SDS011;17813;0.000;0.000;2024-03-08T02:50:58;30.63;;;22.80;;
31182;SDS011;17813;0.000;0.000;2024-03-08T02:53:28;33.23;;;24.10;;
31182;SDS011;17813;0.000;0.000;2024-03-08T02:55:55;27.70;;;21.87;;
31182;SDS011;17813;0.000;0.000;2024-03-08T02:58:24;30.17;;;22.03;;
31182;SDS011;17813;0.000;0.000;2024-03-08T03:00:52;27.17;;;20.37;;
31182;SDS011;17813;0.000;0.000;2024-03-08T03:03:21;26.63;;;20.73;;
31182;SDS011;17813;0.000;0.000;2024-03-08T03:05:49;27.27;;;20.97;;
31182;SDS011;17813;0.000;0.000;2024-03-08T03:08:17;27.00;;;21.17;;
31182;SDS011;17813;0.000;0.000;2024-03-08T03:10:46;27.07;;;20.97;;
31182;SDS011;17813;0.000;0.000;2024-03-08T03:13:15;26.73;;;20.90;;
31182;SDS011;17813;0.000;0.000;2024-03-08T03:15:42;29.37;;;22.23;;
31182;SDS011;17813;0.000;0.000;2024-03-08T03:18:09;29.03;;;21.27;;
31182;SDS011;17813;0.000;0.000;2024-03-08T03:20:38;28.53;;;21.27;;
31182;SDS011;17813;0.000;0.000;2024-03-08T03:23:09;29.43;;;20.83;;
31182;SDS011;17813;0.000;0.000;2024-03-08T03:25:39;28.13;;;21.10;;
31182;SDS011;17813;0.000;0.000;2024-03-08T03:28:08;29.50;;;21.27;;
31182;SDS011;17813;0.000;0.000;2024-03-08T03:30:37;29.27;;;21.03;;
31182;SDS011;17813;0.000;0.000;2024-03-08T03:33:05;28.27;;;21.57;;
31182;SDS011;17813;0.000;0.000;2024-03-08T03:35:35;32.10;;;23.90;;
31182;SDS011;17813;0.000;0.000;2024-03-08T03:38:03;30.10;;;22.70;;
31182;SDS011;17813;0.000;0.000;2024-03-08T03:40:34;29.63;;;22.70;;
31182;SDS011;17813;0.000;0.000;2024-03-08T03:43:06;31.60;;;22.30;;
31182;SDS011;17813;0.000;0.000;2024-03-08T03:45:35;31.10;;;23.20;;
31182;SDS011;17813;0.000;0.000;2024-03-08T03:48:06;29.73;;;23.17;;
31182;SDS011;17813;0.000;0.000;2024-03-08T03:50:36;33.30;;;23.53;;
31182;SDS011;17813;0.000;0.000;2024-03-08T03:53:04;28.63;;;22.93;;
31182;SDS011;17813;0.000;0.000;2024-03-08T03:55:34;30.30;;;23.50;;
31182;SDS011;17813;0.000;0.000;2024-03-08T03:58:05;31.17;;;23.60;;
31182;SDS011;17813;0.000;0.000;2024-03-08T04:00:33;31.30;;;24.33;;
31182;SDS011;17813;0.000;0.000;2024-03-08T04:03:04;29.40;;;22.73;;
31182;SDS011;17813;0.000;0.000;2024-03-08T04:05:32;28.90;;;22.67;;
31182;SDS011;17813;0.000;0.000;2024-03-08T04:08:00;33.57;;;23.10;;
31182;SDS011;17813;0.000;0.000;2024-03-08T04:10:29;31.67;;;22.20;;
31182;SDS011;17813;0.000;0.000;2024-03-08T04:12:57;27.97;;;21.23;;
31182;SDS011;17813;0.000;0.000;2024-03-08T04:15:26;36.13;;;23.77;;
31182;SDS011;17813;0.000;0.000;2024-03-08T04:17:56;31.20;;;23.90;;
31182;SDS011;17813;0.000;0.000;2024-03-08T04:20:26;31.17;;;23.77;;
31182;SDS011;17813;0.000;0.000;2024-03-08T04:22:53;32.23;;;22.93;;
31182;SDS011;17813;0.000;0.000;2024-03-08T04:25:20;33.93;;;23.87;;
31182;SDS011;17813;0.000;0.000;2024-03-08T04:27:47;32.10;;;23.63;;
31182;SDS011;17813;0.000;0.000;2024-03-08T04:30:15;32.30;;;23.80;;
31182;SDS011;17813;0.000;0.000;2024-03-08T04:32:46;33.30;;;23.43;;
31182;SDS011;17813;0.000;0.000;2024-03-08T04:35:13;31.90;;;23.63;;
31182;SDS011;17813;0.000;0.000;2024-03-08T04:37:41;32.10;;;23.67;;
31182;SDS011;17813;0.000;0.000;2024-03-08T04:40:09;32.00;;;23.63;;
31182;SDS011;17813;0.000;0.000;2024-03-08T04:42:38;30.03;;;22.37;;
31182;SDS011;17813;0.000;0.000;2024-03-08T04:45:08;29.87;;;22.57;;
31182;SDS011;17813;0.000;0.000;2024-03-08T04:47:39;31.50;;;21.80;;
31182;SDS011;17813;0.000;0.000;2024-03-08T04:50:07;27.47;;;21.43;;
31182;SDS011;17813;0.000;0.000;2024-03-08T04:52:36;28.80;;;21.57;;
31182;SDS011;17813;0.000;0.000;2024-03-08T04:55:03;29.90;;;22.50;;
31182;SDS011;17813;0.000;0.000;2024-03-08T04:57:31;31.67;;;23.30;;
31182;SDS011;17813;0.000;0.000;2024-03-08T04:59:59;35.07;;;23.47;;
31182;SDS011;17813;0.000;0.000;2024-03-08T05:02:28;30.60;;;23.73;;
31182;SDS011;17813;0.000;0.000;2024-03-08T05:04:54;29.93;;;21.77;;
31182;SDS011;17813;0.000;0.000;2024-03-08T05:07:21;28.00;;;21.37;;
31182;SDS011;17813;0.000;0.000;2024-03-08T05:09:49;28.03;;;21.37;;
31182;SDS011;17813;0.000;0.000;2024-03-08T05:12:20;28.97;;;22.20;;
31182;SDS011;17813;0.000;0.000;2024-03-08T05:14:49;32.10;;;22.00;;
31182;SDS011;17813;0.000;0.000;2024-03-08T05:17:19;30.07;;;21.17;;
31182;SDS011;17813;0.000;0.000;2024-03-08T05:19:55;28.10;;;21.33;;
31182;SDS011;17813;0.000;0.000;2024-03-08T05:22:23;31.33;;;22.60;;
31182;SDS011;17813;0.000;0.000;2024-03-08T05:24:59;26.87;;;21.03;;
31182;SDS011;17813;0.000;0.000;2024-03-08T05:27:27;32.97;;;22.40;;
31182;SDS011;17813;0.000;0.000;2024-03-08T05:29:55;27.13;;;21.33;;
31182;SDS011;17813;0.000;0.000;2024-03-08T05:32:23;28.50;;;21.87;;
31182;SDS011;17813;0.000;0.000;2024-03-08T05:35:18;29.37;;;21.77;;
31182;SDS011;17813;0.000;0.000;2024-03-08T05:37:47;30.53;;;21.63;;
31182;SDS011;17813;0.000;0.000;2024-03-08T05:40:17;30.17;;;23.07;;
31182;SDS011;17813;0.000;0.000;2024-03-08T05:42:44;30.43;;;23.33;;
31182;SDS011;17813;0.000;0.000;2024-03-08T05:45:12;33.83;;;23.43;;
31182;SDS011;17813;0.000;0.000;2024-03-08T05:47:41;31.40;;;24.93;;
31182;SDS011;17813;0.000;0.000;2024-03-08T05:50:12;32.30;;;24.63;;
31182;SDS011;17813;0.000;0.000;2024-03-08T05:52:43;30.63;;;22.93;;
31182;SDS011;17813;0.000;0.000;2024-03-08T05:55:27;32.87;;;24.17;;
31182;SDS011;17813;0.000;0.000;2024-03-08T05:57:58;34.03;;;24.87;;
31182;SDS011;17813;0.000;0.000;2024-03-08T06:00:34;33.80;;;24.93;;
31182;SDS011;17813;0.000;0.000;2024-03-08T06:03:02;33.13;;;24.03;;
31182;SDS011;17813;0.000;0.000;2024-03-08T06:05:31;30.17;;;23.40;;
31182;SDS011;17813;0.000;0.000;2024-03-08T06:07:59;35.13;;;24.60;;
31182;SDS011;17813;0.000;0.000;2024-03-08T06:10:26;31.80;;;22.87;;
31182;SDS011;17813;0.000;0.000;2024-03-08T06:12:54;31.53;;;23.53;;
31182;SDS011;17813;0.000;0.000;2024-03-08T06:15:21;35.20;;;24.90;;
31182;SDS011;17813;0.000;0.000;2024-03-08T06:17:49;32.20;;;23.43;;
31182;SDS011;17813;0.000;0.000;2024-03-08T06:20:19;33.07;;;24.73;;
31182;SDS011;17813;0.000;0.000;2024-03-08T06:22:52;36.57;;;23.93;;
31182;SDS011;17813;0.000;0.000;2024-03-08T06:25:23;33.00;;;24.33;;
31182;SDS011;17813;0.000;0.000;2024-03-08T06:27:51;35.47;;;26.47;;
31182;SDS011;17813;0.000;0.000;2024-03-08T06:30:20;34.37;;;26.40;;
31182;SDS011;17813;0.000;0.000;2024-03-08T06:32:49;34.57;;;26.13;;
31182;SDS011;17813;0.000;0.000;2024-03-08T06:35:17;36.10;;;26.17;;
31182;SDS011;17813;0.000;0.000;2024-03-08T06:37:46;33.83;;;25.13;;
31182;SDS011;17813;0.000;0.000;2024-03-08T06:40:13;34.03;;;25.50;;
31182;SDS011;17813;0.000;0.000;2024-03-08T06:42:41;33.90;;;25.90;;
31182;SDS011;17813;0.000;0.000;2024-03-08T06:45:08;32.03;;;24.43;;
31182;SDS011;17813;0.000;0.000;2024-03-08T06:47:36;32.87;;;25.50;;
31182;SDS011;17813;0.000;0.000;2024-03-08T06:50:03;36.27;;;27.00;;
31182;SDS011;17813;0.000;0.000;2024-03-08T06:52:31;32.90;;;25.67;;
31182;SDS011;17813;0.000;0.000;2024-03-08T06:54:58;32.27;;;25.83;;
31182;SDS011;17813;0.000;0.000;2024-03-08T06:57:28;29.23;;;24.13;;
31182;SDS011;17813;0.000;0.000;2024-03-08T06:59:57;30.33;;;24.53;;
31182;SDS011;17813;0.000;0.000;2024-03-08T07:02:27;29.63;;;24.80;;
31182;SDS011;17813;0.000;0.000;2024-03-08T07:04:57;32.33;;;25.93;;
31182;SDS011;17813;0.000;0.000;2024-03-08T07:07:35;30.67;;;24.97;;
31182;SDS011;17813;0.000;0.000;2024-03-08T07:10:09;28.03;;;23.67;;
31182;SDS011;17813;0.000;0.000;2024-03-08T07:12:39;33.10;;;25.73;;
31182;SDS011;17813;0.000;0.000;2024-03-08T07:15:08;30.57;;;25.67;;
31182;SDS011;17813;0.000;0.000;2024-03-08T07:17:40;29.73;;;24.97;;
31182;SDS011;17813;0.000;0.000;2024-03-08T07:20:10;31.33;;;24.23;;
31182;SDS011;17813;0.000;0.000;2024-03-08T07:22:41;26.77;;;23.43;;
31182;SDS011;17813;0.000;0.000;2024-03-08T07:25:08;26.17;;;23.30;;
31182;SDS011;17813;0.000;0.000;2024-03-08T07:27:53;26.07;;;23.37;;
31182;SDS011;17813;0.000;0.000;2024-03-08T07:30:25;26.27;;;22.67;;
31182;SDS011;17813;0.000;0.000;2024-03-08T07:33:12;28.73;;;23.43;;
31182;SDS011;17813;0.000;0.000;2024-03-08T07:35:41;26.37;;;22.73;;
31182;SDS011;17813;0.000;0.000;2024-03-08T07:38:09;25.27;;;22.60;;
31182;SDS011;17813;0.000;0.000;2024-03-08T07:40:39;26.97;;;22.97;;
31182;SDS011;17813;0.000;0.000;2024-03-08T07:43:11;25.17;;;22.33;;
31182;SDS011;17813;0.000;0.000;2024-03-08T07:45:41;27.27;;;23.20;;
31182;SDS011;17813;0.000;0.000;2024-03-08T07:48:08;25.73;;;22.97;;
31182;SDS011;17813;0.000;0.000;2024-03-08T07:50:39;25.03;;;22.53;;
31182;SDS011;17813;0.000;0.000;2024-03-08T07:53:07;24.37;;;21.73;;
31182;SDS011;17813;0.000;0.000;2024-03-08T07:55:34;24.60;;;22.00;;
31182;SDS011;17813;0.000;0.000;2024-03-08T07:58:02;23.93;;;21.53;;
31182;SDS011;17813;0.000;0.000;2024-03-08T08:00:31;23.97;;;21.43;;
31182;SDS011;17813;0.000;0.000;2024-03-08T08:03:05;24.07;;;21.67;;
31182;SDS011;17813;0.000;0.000;2024-03-08T08:05:34;23.97;;;21.47;;
31182;SDS011;17813;0.000;0.000;2024-03-08T08:08:03;24.80;;;22.30;;
31182;SDS011;17813;0.000;0.000;2024-03-08T08:10:33;25.00;;;22.30;;
31182;SDS011;17813;0.000;0.000;2024-03-08T08:13:02;25.67;;;22.97;;
31182;SDS011;17813;0.000;0.000;2024-03-08T08:15:37;24.57;;;21.97;;
31182;SDS011;17813;0.000;0.000;2024-03-08T08:18:04;24.33;;;21.83;;
31182;SDS011;17813;0.000;0.000;2024-03-08T08:20:32;24.27;;;21.73;;
31182;SDS011;17813;0.000;0.000;2024-03-08T08:23:01;26.87;;;23.00;;
31182;SDS011;17813;0.000;0.000;2024-03-08T08:25:28;25.03;;;22.33;;
31182;SDS011;17813;0.000;0.000;2024-03-08T08:27:55;24.73;;;22.13;;
31182;SDS011;17813;0.000;0.000;2024-03-08T08:30:22;25.33;;;22.83;;
31182;SDS011;17813;0.000;0.000;2024-03-08T08:32:49;25.63;;;22.93;;
31182;SDS011;17813;0.000;0.000;2024-03-08T08:35:17;24.77;;;22.35;;
31182;SDS011;17813;0.000;0.000;2024-03-08T08:37:47;23.92;;;21.40;;
31182;SDS011;17813;0.000;0.000;2024-03-08T08:40:21;24.73;;;22.10;;
31182;SDS011;17813;0.000;0.000;2024-03-08T08:42:54;25.17;;;22.58;;
31182;SDS011;17813;0.000;0.000;2024-03-08T08:45:23;24.60;;;22.10;;
31182;SDS011;17813;0.000;0.000;2024-03-08T08:47:56;25.92;;;22.42;;
31182;SDS011;17813;0.000;0.000;2024-03-08T08:50:43;24.80;;;22.38;;
31182;SDS011;17813;0.000;0.000;2024-03-08T08:53:13;24.75;;;22.23;;
31182;SDS011;17813;0.000;0.000;2024-03-08T08:55:40;24.73;;;22.38;;
31182;SDS011;17813;0.000;0.000;2024-03-08T08:58:08;23.48;;;21.08;;
31182;SDS011;17813;0.000;0.000;2024-03-08T09:00:37;23.50;;;21.10;;
31182;SDS011;17813;0.000;0.000;2024-03-08T09:03:06;23.58;;;21.38;;
31182;SDS011;17813;0.000;0.000;2024-03-08T09:05:33;22.45;;;20.33;;
31182;SDS011;17813;0.000;0.000;2024-03-08T09:08:01;23.98;;;21.77;;
31182;SDS011;17813;0.000;0.000;2024-03-08T09:10:28;22.83;;;20.52;;
31182;SDS011;17813;0.000;0.000;2024-03-08T09:12:56;23.00;;;20.75;;
31182;SDS011;17813;0.000;0.000;2024-03-08T09:15:23;21.70;;;19.42;;
31182;SDS011;17813;0.000;0.000;2024-03-08T09:17:53;21.98;;;19.85;;
31182;SDS011;17813;0.000;0.000;2024-03-08T09:20:21;22.30;;;20.13;;
31182;SDS011;17813;0.000;0.000;2024-03-08T09:22:48;21.88;;;19.70;;
31182;SDS011;17813;0.000;0.000;2024-03-08T09:25:15;23.33;;;21.13;;
31182;SDS011;17813;0.000;0.000;2024-03-08T09:27:42;22.45;;;20.17;;
31182;SDS011;17813;0.000;0.000;2024-03-08T09:30:10;22.08;;;19.85;;
31182;SDS011;17813;0.000;0.000;2024-03-08T09:32:38;22.75;;;20.45;;
31182;SDS011;17813;0.000;0.000;2024-03-08T09:35:05;22.35;;;20.15;;
31182;SDS011;17813;0.000;0.000;2024-03-08T09:37:33;22.65;;;20.45;;
31182;SDS011;17813;0.000;0.000;2024-03-08T09:40:01;22.85;;;20.55;;
31182;SDS011;17813;0.000;0.000;2024-03-08T09:42:30;22.80;;;20.40;;
31182;SDS011;17813;0.000;0.000;2024-03-08T09:44:58;22.10;;;19.90;;
31182;SDS011;17813;0.000;0.000;2024-03-08T09:47:27;22.48;;;20.27;;
31182;SDS011;17813;0.000;0.000;2024-03-08T09:49:59;23.10;;;20.80;;
31182;SDS011;17813;0.000;0.000;2024-03-08T09:52:26;21.98;;;19.75;;
31182;SDS011;17813;0.000;0.000;2024-03-08T09:54:57;21.33;;;19.23;;
31182;SDS011;17813;0.000;0.000;2024-03-08T09:57:26;22.58;;;20.40;;
31182;SDS011;17813;0.000;0.000;2024-03-08T09:59:56;23.27;;;21.08;;
31182;SDS011;17813;0.000;0.000;2024-03-08T10:02:27;22.90;;;20.70;;
31182;SDS011;17813;0.000;0.000;2024-03-08T10:04:55;22.35;;;20.05;;
31182;SDS011;17813;0.000;0.000;2024-03-08T10:07:24;22.52;;;19.98;;
31182;SDS011;17813;0.000;0.000;2024-03-08T10:09:54;22.60;;;20.40;;
31182;SDS011;17813;0.000;0.000;2024-03-08T10:12:22;21.88;;;19.73;;
31182;SDS011;17813;0.000;0.000;2024-03-08T10:14:50;21.98;;;19.80;;
31182;SDS011;17813;0.000;0.000;2024-03-08T10:17:20;21.15;;;19.05;;
31182;SDS011;17813;0.000;0.000;2024-03-08T10:19:50;22.45;;;20.08;;
31182;SDS011;17813;0.000;0.000;2024-03-08T10:22:18;22.40;;;20.20;;
31182;SDS011;17813;0.000;0.000;2024-03-08T10:24:48;22.77;;;20.33;;
31182;SDS011;17813;0.000;0.000;2024-03-08T10:27:19;21.67;;;19.45;;
31182;SDS011;17813;0.000;0.000;2024-03-08T10:29:47;21.25;;;19.05;;
31182;SDS011;17813;0.000;0.000;2024-03-08T10:32:21;21.20;;;19.05;;
31182;SDS011;17813;0.000;0.000;2024-03-08T10:34:51;22.88;;;20.55;;
31182;SDS011;17813;0.000;0.000;2024-03-08T10:37:19;22.00;;;19.63;;
31182;SDS011;17813;0.000;0.000;2024-03-08T10:39:58;21.27;;;19.08;;
31182;SDS011;17813;0.000;0.000;2024-03-08T10:42:40;21.40;;;19.20;;
31182;SDS011;17813;0.000;0.000;2024-03-08T10:45:31;22.33;;;20.13;;
31182;SDS011;17813;0.000;0.000;2024-03-08T10:50:48;21.05;;;18.95;;
31182;SDS011;17813;0.000;0.000;2024-03-08T10:53:20;21.33;;;19.00;;
31182;SDS011;17813;0.000;0.000;2024-03-08T10:55:53;20.92;;;18.83;;
31182;SDS011;17813;0.000;0.000;2024-03-08T10:58:25;21.30;;;19.27;;
31182;SDS011;17813;0.000;0.000;2024-03-08T11:00:54;21.42;;;19.23;;
31182;SDS011;17813;0.000;0.000;2024-03-08T11:06:15;21.30;;;19.27;;
31182;SDS011;17813;0.000;0.000;2024-03-08T11:08:50;19.45;;;17.38;;
31182;SDS011;17813;0.000;0.000;2024-03-08T11:11:24;19.27;;;17.42;;
31182;SDS011;17813;0.000;0.000;2024-03-08T11:14:01;18.83;;;17.00;;
31182;SDS011;17813;0.000;0.000;2024-03-08T11:19:06;18.95;;;17.13;;
31182;SDS011;17813;0.000;0.000;2024-03-08T11:21:37;18.15;;;16.42;;
31182;SDS011;17813;0.000;0.000;2024-03-08T11:24:06;18.45;;;16.65;;
31182;SDS011;17813;0.000;0.000;2024-03-08T11:26:38;17.45;;;15.75;;
31182;SDS011;17813;0.000;0.000;2024-03-08T11:34:40;17.63;;;15.85;;
31182;SDS011;17813;0.000;0.000;2024-03-08T11:37:17;18.03;;;16.13;;
31182;SDS011;17813;0.000;0.000;2024-03-08T11:39:48;17.90;;;16.00;;
31182;SDS011;17813;0.000;0.000;2024-03-08T11:42:27;17.17;;;15.37;;
31182;SDS011;17813;0.000;0.000;2024-03-08T11:44:54;16.57;;;14.90;;
31182;SDS011;17813;0.000;0.000;2024-03-08T11:47:22;18.77;;;15.33;;
31182;SDS011;17813;0.000;0.000;2024-03-08T11:49:51;17.57;;;15.77;;
31182;SDS011;17813;0.000;0.000;2024-03-08T11:52:20;18.17;;;16.13;;
31182;SDS011;17813;0.000;0.000;2024-03-08T11:54:52;17.80;;;15.60;;
31182;SDS011;17813;0.000;0.000;2024-03-08T11:57:23;17.27;;;15.47;;
31182;SDS011;17813;0.000;0.000;2024-03-08T11:59:51;20.47;;;15.97;;
31182;SDS011;17813;0.000;0.000;2024-03-08T12:02:19;19.80;;;16.97;;
31182;SDS011;17813;0.000;0.000;2024-03-08T12:04:55;18.10;;;16.20;;
31182;SDS011;17813;0.000;0.000;2024-03-08T12:07:27;17.60;;;15.73;;
31182;SDS011;17813;0.000;0.000;2024-03-08T12:12:46;17.63;;;14.90;;
31182;SDS011;17813;0.000;0.000;2024-03-08T12:15:19;17.97;;;16.03;;
31182;SDS011;17813;0.000;0.000;2024-03-08T12:17:50;17.80;;;15.90;;
31182;SDS011;17813;0.000;0.000;2024-03-08T12:22:53;16.13;;;14.30;;
31182;SDS011;17813;0.000;0.000;2024-03-08T12:25:29;16.10;;;14.40;;
31182;SDS011;17813;0.000;0.000;2024-03-08T12:28:06;17.10;;;15.30;;
31182;SDS011;17813;0.000;0.000;2024-03-08T12:30:45;17.10;;;15.30;;
31182;SDS011;17813;0.000;0.000;2024-03-08T12:33:15;19.63;;;17.13;;
31182;SDS011;17813;0.000;0.000;2024-03-08T12:35:50;18.87;;;15.23;;
31182;SDS011;17813;0.000;0.000;2024-03-08T12:38:27;18.20;;;15.70;;
31182;SDS011;17813;0.000;0.000;2024-03-08T12:41:00;18.30;;;15.43;;
31182;SDS011;17813;0.000;0.000;2024-03-08T12:43:27;16.90;;;14.80;;
31182;SDS011;17813;0.000;0.000;2024-03-08T12:45:56;16.27;;;14.57;;
31182;SDS011;17813;0.000;0.000;2024-03-08T12:48:24;16.00;;;14.30;;
31182;SDS011;17813;0.000;0.000;2024-03-08T12:50:51;16.37;;;14.70;;
31182;SDS011;17813;0.000;0.000;2024-03-08T12:53:19;15.93;;;14.10;;
31182;SDS011;17813;0.000;0.000;2024-03-08T12:55:46;18.30;;;14.63;;
31182;SDS011;17813;0.000;0.000;2024-03-08T12:58:13;19.33;;;15.30;;
31182;SDS011;17813;0.000;0.000;2024-03-08T13:00:42;15.90;;;14.30;;
31182;SDS011;17813;0.000;0.000;2024-03-08T13:03:09;16.13;;;14.43;;
31182;SDS011;17813;0.000;0.000;2024-03-08T13:05:37;14.87;;;13.33;;
31182;SDS011;17813;0.000;0.000;2024-03-08T13:08:08;15.37;;;13.57;;
31182;SDS011;17813;0.000;0.000;2024-03-08T13:10:41;15.43;;;13.83;;
31182;SDS011;17813;0.000;0.000;2024-03-08T13:13:10;16.00;;;14.00;;
31182;SDS011;17813;0.000;0.000;2024-03-08T13:15:42;15.60;;;14.00;;
31182;SDS011;17813;0.000;0.000;2024-03-08T13:18:18;14.80;;;13.27;;
31182;SDS011;17813;0.000;0.000;2024-03-08T13:21:05;14.63;;;13.13;;
31182;SDS011;17813;0.000;0.000;2024-03-08T13:23:36;13.60;;;12.23;;
31182;SDS011;17813;0.000;0.000;2024-03-08T13:26:12;11.87;;;10.60;;
31182;SDS011;17813;0.000;0.000;2024-03-08T13:28:45;10.93;;;9.83;;
31182;SDS011;17813;0.000;0.000;2024-03-08T13:31:15;11.27;;;10.17;;
31182;SDS011;17813;0.000;0.000;2024-03-08T13:33:43;11.77;;;9.73;;
31182;SDS011;17813;0.000;0.000;2024-03-08T13:36:13;11.67;;;10.27;;
31182;SDS011;17813;0.000;0.000;2024-03-08T13:38:44;10.80;;;9.70;;
31182;SDS011;17813;0.000;0.000;2024-03-08T13:41:14;12.80;;;11.50;;
31182;SDS011;17813;0.000;0.000;2024-03-08T13:43:45;12.57;;;11.27;;
31182;SDS011;17813;0.000;0.000;2024-03-08T13:46:16;12.57;;;11.33;;
31182;SDS011;17813;0.000;0.000;2024-03-08T13:48:46;13.30;;;12.00;;
31182;SDS011;17813;0.000;0.000;2024-03-08T13:51:14;13.60;;;11.97;;
31182;SDS011;17813;0.000;0.000;2024-03-08T13:53:45;13.03;;;11.63;;
31182;SDS011;17813;0.000;0.000;2024-03-08T13:56:17;13.57;;;12.07;;
31182;SDS011;17813;0.000;0.000;2024-03-08T13:58:44;14.13;;;12.63;;
31182;SDS011;17813;0.000;0.000;2024-03-08T14:01:11;13.10;;;11.77;;
31182;SDS011;17813;0.000;0.000;2024-03-08T14:03:41;14.23;;;12.73;;
31182;SDS011;17813;0.000;0.000;2024-03-08T14:06:09;13.27;;;11.90;;
31182;SDS011;17813;0.000;0.000;2024-03-08T14:08:37;13.07;;;11.77;;
31182;SDS011;17813;0.000;0.000;2024-03-08T14:11:06;13.00;;;11.70;;
31182;SDS011;17813;0.000;0.000;2024-03-08T14:13:41;13.27;;;11.93;;
31182;SDS011;17813;0.000;0.000;2024-03-08T14:16:13;13.63;;;12.33;;
31182;SDS011;17813;0.000;0.000;2024-03-08T14:18:46;16.17;;;12.90;;
31182;SDS011;17813;0.000;0.000;2024-03-08T14:21:13;14.63;;;13.13;;
31182;SDS011;17813;0.000;0.000;2024-03-08T14:23:41;14.47;;;12.97;;
31182;SDS011;17813;0.000;0.000;2024-03-08T14:26:09;13.87;;;12.37;;
31182;SDS011;17813;0.000;0.000;2024-03-08T14:28:37;13.13;;;11.83;;
31182;SDS011;17813;0.000;0.000;2024-03-08T14:31:04;13.10;;;11.67;;
31182;SDS011;17813;0.000;0.000;2024-03-08T14:33:37;14.37;;;12.87;;
31182;SDS011;17813;0.000;0.000;2024-03-08T14:36:04;14.20;;;12.73;;
31182;SDS011;17813;0.000;0.000;2024-03-08T14:38:31;14.67;;;13.10;;
31182;SDS011;17813;0.000;0.000;2024-03-08T14:40:59;15.27;;;13.70;;
31182;SDS011;17813;0.000;0.000;2024-03-08T14:43:27;14.87;;;13.37;;
31182;SDS011;17813;0.000;0.000;2024-03-08T14:45:55;16.70;;;14.30;;
31182;SDS011;17813;0.000;0.000;2024-03-08T14:48:22;19.07;;;14.57;;
31182;SDS011;17813;0.000;0.000;2024-03-08T14:50:51;16.60;;;14.87;;
31182;SDS011;17813;0.000;0.000;2024-03-08T14:53:31;16.40;;;14.73;;
31182;SDS011;17813;0.000;0.000;2024-03-08T14:56:00;17.30;;;15.30;;
31182;SDS011;17813;0.000;0.000;2024-03-08T14:58:32;17.60;;;15.27;;
31182;SDS011;17813;0.000;0.000;2024-03-08T15:01:05;17.13;;;15.43;;
31182;SDS011;17813;0.000;0.000;2024-03-08T15:03:35;17.47;;;15.57;;
31182;SDS011;17813;0.000;0.000;2024-03-08T15:06:06;20.60;;;18.47;;
31182;SDS011;17813;0.000;0.000;2024-03-08T15:08:36;18.87;;;16.87;;